sensor_id;sensor_type;location;lat;lon;timestamp;P1;durP1;ratioP1;P2;durP2;ratioP2
48363;SDS011;34170;54.364;18.582;2023-04-25T00:02:25;4.50;;;2.55;;
48363;SDS011;34170;54.364;18.582;2023-04-25T00:04:53;3.70;;;2.53;;
48363;SDS011;34170;54.364;18.582;2023-04-25T00:07:21;4.28;;;2.63;;
48363;SDS011;34170;54.364;18.582;2023-04-25T00:09:49;3.50;;;2.28;;
48363;SDS011;34170;54.364;18.582;2023-04-25T00:12:17;4.95;;;2.53;;
48363;SDS011;34170;54.364;18.582;2023-04-25T00:14:44;3.10;;;2.00;;
48363;SDS011;34170;54.364;18.582;2023-04-25T00:17:13;3.42;;;2.47;;
48363;SDS011;34170;54.364;18.582;2023-04-25T00:19:40;3.70;;;2.33;;
48363;SDS011;34170;54.364;18.582;2023-04-25T00:22:08;4.07;;;2.25;;
48363;SDS011;34170;54.364;18.582;2023-04-25T00:24:35;4.28;;;2.38;;
48363;SDS011;34170;54.364;18.582;2023-04-25T00:27:02;3.00;;;2.30;;
48363;SDS011;34170;54.364;18.582;2023-04-25T00:29:30;4.43;;;2.17;;
48363;SDS011;34170;54.364;18.582;2023-04-25T00:31:57;4.10;;;2.33;;
48363;SDS011;34170;54.364;18.582;2023-04-25T00:34:25;3.78;;;2.47;;
48363;SDS011;34170;54.364;18.582;2023-04-25T00:36:52;3.58;;;2.28;;
48363;SDS011;34170;54.364;18.582;2023-04-25T00:39:20;3.17;;;2.33;;
48363;SDS011;34170;54.364;18.582;2023-04-25T00:41:48;6.78;;;2.50;;
48363;SDS011;34170;54.364;18.582;2023-04-25T00:44:15;9.82;;;3.00;;
48363;SDS011;34170;54.364;18.582;2023-04-25T00:46:43;5.78;;;2.58;;
48363;SDS011;34170;54.364;18.582;2023-04-25T00:49:11;4.38;;;2.70;;
48363;SDS011;34170;54.364;18.582;2023-04-25T00:51:42;3.42;;;1.80;;
48363;SDS011;34170;54.364;18.582;2023-04-25T00:54:14;3.22;;;2.15;;
48363;SDS011;34170;54.364;18.582;2023-04-25T00:56:42;5.13;;;2.30;;
48363;SDS011;34170;54.364;18.582;2023-04-25T00:59:12;2.58;;;2.03;;
48363;SDS011;34170;54.364;18.582;2023-04-25T01:01:42;3.17;;;2.20;;
48363;SDS011;34170;54.364;18.582;2023-04-25T01:04:11;4.15;;;2.35;;
48363;SDS011;34170;54.364;18.582;2023-04-25T01:06:40;4.78;;;2.20;;
48363;SDS011;34170;54.364;18.582;2023-04-25T01:09:07;3.42;;;2.38;;
48363;SDS011;34170;54.364;18.582;2023-04-25T01:11:35;3.78;;;2.10;;
48363;SDS011;34170;54.364;18.582;2023-04-25T01:14:02;4.45;;;2.95;;
48363;SDS011;34170;54.364;18.582;2023-04-25T01:16:30;3.35;;;2.60;;
48363;SDS011;34170;54.364;18.582;2023-04-25T01:18:58;3.35;;;2.50;;
48363;SDS011;34170;54.364;18.582;2023-04-25T01:21:26;4.53;;;2.70;;
48363;SDS011;34170;54.364;18.582;2023-04-25T01:23:55;4.55;;;3.25;;
48363;SDS011;34170;54.364;18.582;2023-04-25T01:26:23;6.32;;;2.80;;
48363;SDS011;34170;54.364;18.582;2023-04-25T01:28:52;4.22;;;2.75;;
48363;SDS011;34170;54.364;18.582;2023-04-25T01:31:19;4.53;;;3.17;;
48363;SDS011;34170;54.364;18.582;2023-04-25T01:33:47;3.20;;;2.88;;
48363;SDS011;34170;54.364;18.582;2023-04-25T01:36:15;3.40;;;2.70;;
48363;SDS011;34170;54.364;18.582;2023-04-25T01:38:42;3.83;;;2.85;;
48363;SDS011;34170;54.364;18.582;2023-04-25T01:41:10;4.38;;;2.83;;
48363;SDS011;34170;54.364;18.582;2023-04-25T01:43:38;3.88;;;2.95;;
48363;SDS011;34170;54.364;18.582;2023-04-25T01:46:06;3.53;;;2.35;;
48363;SDS011;34170;54.364;18.582;2023-04-25T01:48:33;4.30;;;2.80;;
48363;SDS011;34170;54.364;18.582;2023-04-25T01:51:01;6.63;;;3.28;;
48363;SDS011;34170;54.364;18.582;2023-04-25T01:53:29;5.18;;;3.15;;
48363;SDS011;34170;54.364;18.582;2023-04-25T01:55:57;4.20;;;3.30;;
48363;SDS011;34170;54.364;18.582;2023-04-25T01:58:28;4.38;;;2.70;;
48363;SDS011;34170;54.364;18.582;2023-04-25T02:01:16;7.57;;;3.38;;
48363;SDS011;34170;54.364;18.582;2023-04-25T02:03:52;4.00;;;2.70;;
48363;SDS011;34170;54.364;18.582;2023-04-25T02:06:29;5.95;;;3.30;;
48363;SDS011;34170;54.364;18.582;2023-04-25T02:08:57;4.75;;;3.38;;
48363;SDS011;34170;54.364;18.582;2023-04-25T02:11:25;5.43;;;3.22;;
48363;SDS011;34170;54.364;18.582;2023-04-25T02:14:11;4.15;;;3.47;;
48363;SDS011;34170;54.364;18.582;2023-04-25T02:16:58;4.82;;;3.80;;
48363;SDS011;34170;54.364;18.582;2023-04-25T02:19:26;5.38;;;3.92;;
48363;SDS011;34170;54.364;18.582;2023-04-25T02:21:53;5.72;;;3.60;;
48363;SDS011;34170;54.364;18.582;2023-04-25T02:24:21;6.07;;;3.83;;
48363;SDS011;34170;54.364;18.582;2023-04-25T02:26:49;4.85;;;3.53;;
48363;SDS011;34170;54.364;18.582;2023-04-25T02:29:17;4.72;;;3.58;;
48363;SDS011;34170;54.364;18.582;2023-04-25T02:31:44;6.20;;;4.03;;
48363;SDS011;34170;54.364;18.582;2023-04-25T02:34:12;5.38;;;3.75;;
48363;SDS011;34170;54.364;18.582;2023-04-25T02:36:39;4.63;;;3.60;;
48363;SDS011;34170;54.364;18.582;2023-04-25T02:39:06;5.72;;;4.07;;
48363;SDS011;34170;54.364;18.582;2023-04-25T02:41:34;7.03;;;3.95;;
48363;SDS011;34170;54.364;18.582;2023-04-25T02:44:01;5.53;;;3.70;;
48363;SDS011;34170;54.364;18.582;2023-04-25T02:46:29;5.32;;;3.80;;
48363;SDS011;34170;54.364;18.582;2023-04-25T02:49:06;4.63;;;3.88;;
48363;SDS011;34170;54.364;18.582;2023-04-25T02:51:34;5.65;;;4.40;;
48363;SDS011;34170;54.364;18.582;2023-04-25T02:54:02;5.55;;;4.20;;
48363;SDS011;34170;54.364;18.582;2023-04-25T02:56:33;5.47;;;4.10;;
48363;SDS011;34170;54.364;18.582;2023-04-25T02:59:01;6.70;;;4.95;;
48363;SDS011;34170;54.364;18.582;2023-04-25T03:01:29;6.07;;;4.45;;
48363;SDS011;34170;54.364;18.582;2023-04-25T03:03:56;6.65;;;4.80;;
48363;SDS011;34170;54.364;18.582;2023-04-25T03:06:24;5.15;;;4.13;;
48363;SDS011;34170;54.364;18.582;2023-04-25T03:08:52;7.18;;;5.05;;
48363;SDS011;34170;54.364;18.582;2023-04-25T03:11:19;6.25;;;4.05;;
48363;SDS011;34170;54.364;18.582;2023-04-25T03:13:47;5.90;;;4.60;;
48363;SDS011;34170;54.364;18.582;2023-04-25T03:16:15;9.00;;;4.70;;
48363;SDS011;34170;54.364;18.582;2023-04-25T03:18:43;6.22;;;4.40;;
48363;SDS011;34170;54.364;18.582;2023-04-25T03:21:10;6.03;;;4.78;;
48363;SDS011;34170;54.364;18.582;2023-04-25T03:23:38;6.28;;;4.35;;
48363;SDS011;34170;54.364;18.582;2023-04-25T03:26:07;4.80;;;4.28;;
48363;SDS011;34170;54.364;18.582;2023-04-25T03:28:34;5.57;;;4.38;;
48363;SDS011;34170;54.364;18.582;2023-04-25T03:31:02;6.28;;;4.28;;
48363;SDS011;34170;54.364;18.582;2023-04-25T03:33:29;6.93;;;4.93;;
48363;SDS011;34170;54.364;18.582;2023-04-25T03:35:57;6.60;;;4.43;;
48363;SDS011;34170;54.364;18.582;2023-04-25T03:38:24;6.82;;;4.72;;
48363;SDS011;34170;54.364;18.582;2023-04-25T03:40:52;6.07;;;4.75;;
48363;SDS011;34170;54.364;18.582;2023-04-25T03:43:24;6.72;;;5.63;;
48363;SDS011;34170;54.364;18.582;2023-04-25T03:45:57;7.30;;;6.10;;
48363;SDS011;34170;54.364;18.582;2023-04-25T03:48:25;7.68;;;5.70;;
48363;SDS011;34170;54.364;18.582;2023-04-25T03:50:53;8.27;;;5.57;;
48363;SDS011;34170;54.364;18.582;2023-04-25T03:53:22;7.30;;;5.80;;
48363;SDS011;34170;54.364;18.582;2023-04-25T03:56:07;8.43;;;5.75;;
48363;SDS011;34170;54.364;18.582;2023-04-25T03:58:39;7.22;;;4.95;;
48363;SDS011;34170;54.364;18.582;2023-04-25T04:01:07;6.05;;;5.20;;
48363;SDS011;34170;54.364;18.582;2023-04-25T04:03:37;7.03;;;4.90;;
48363;SDS011;34170;54.364;18.582;2023-04-25T04:06:06;5.15;;;4.40;;
48363;SDS011;34170;54.364;18.582;2023-04-25T04:08:38;7.43;;;5.07;;
48363;SDS011;34170;54.364;18.582;2023-04-25T04:11:08;5.15;;;3.90;;
48363;SDS011;34170;54.364;18.582;2023-04-25T04:13:36;6.43;;;4.82;;
48363;SDS011;34170;54.364;18.582;2023-04-25T04:16:04;8.57;;;5.88;;
48363;SDS011;34170;54.364;18.582;2023-04-25T04:18:32;5.50;;;4.13;;
48363;SDS011;34170;54.364;18.582;2023-04-25T04:21:01;6.43;;;4.60;;
48363;SDS011;34170;54.364;18.582;2023-04-25T04:23:31;6.00;;;4.30;;
48363;SDS011;34170;54.364;18.582;2023-04-25T04:25:59;7.07;;;4.50;;
48363;SDS011;34170;54.364;18.582;2023-04-25T04:28:45;6.50;;;4.38;;
48363;SDS011;34170;54.364;18.582;2023-04-25T04:31:35;5.43;;;4.10;;
48363;SDS011;34170;54.364;18.582;2023-04-25T04:34:03;7.10;;;4.53;;
48363;SDS011;34170;54.364;18.582;2023-04-25T04:36:32;6.13;;;4.53;;
48363;SDS011;34170;54.364;18.582;2023-04-25T04:39:00;8.43;;;5.15;;
48363;SDS011;34170;54.364;18.582;2023-04-25T04:41:43;6.20;;;4.78;;
48363;SDS011;34170;54.364;18.582;2023-04-25T04:44:38;7.20;;;5.22;;
48363;SDS011;34170;54.364;18.582;2023-04-25T04:47:42;7.97;;;4.60;;
48363;SDS011;34170;54.364;18.582;2023-04-25T04:50:28;6.30;;;4.55;;
48363;SDS011;34170;54.364;18.582;2023-04-25T04:53:19;5.68;;;4.43;;
48363;SDS011;34170;54.364;18.582;2023-04-25T04:56:19;5.88;;;3.92;;
48363;SDS011;34170;54.364;18.582;2023-04-25T05:02:01;6.47;;;4.55;;
48363;SDS011;34170;54.364;18.582;2023-04-25T05:04:55;6.03;;;4.88;;
48363;SDS011;34170;54.364;18.582;2023-04-25T05:07:46;5.95;;;4.32;;
48363;SDS011;34170;54.364;18.582;2023-04-25T05:10:39;5.65;;;4.50;;
48363;SDS011;34170;54.364;18.582;2023-04-25T05:13:35;7.78;;;4.85;;
48363;SDS011;34170;54.364;18.582;2023-04-25T05:16:28;5.85;;;4.30;;
48363;SDS011;34170;54.364;18.582;2023-04-25T05:19:25;6.57;;;4.78;;
48363;SDS011;34170;54.364;18.582;2023-04-25T05:22:25;7.95;;;4.97;;
48363;SDS011;34170;54.364;18.582;2023-04-25T05:25:19;7.00;;;4.65;;
48363;SDS011;34170;54.364;18.582;2023-04-25T05:28:04;8.48;;;5.43;;
48363;SDS011;34170;54.364;18.582;2023-04-25T05:31:10;10.32;;;4.97;;
48363;SDS011;34170;54.364;18.582;2023-04-25T05:33:46;7.22;;;4.68;;
48363;SDS011;34170;54.364;18.582;2023-04-25T05:36:14;6.28;;;4.65;;
48363;SDS011;34170;54.364;18.582;2023-04-25T05:38:41;6.57;;;4.60;;
48363;SDS011;34170;54.364;18.582;2023-04-25T05:41:21;7.95;;;4.50;;
48363;SDS011;34170;54.364;18.582;2023-04-25T05:43:59;5.78;;;4.13;;
48363;SDS011;34170;54.364;18.582;2023-04-25T05:46:38;5.35;;;4.30;;
48363;SDS011;34170;54.364;18.582;2023-04-25T05:49:24;6.35;;;4.32;;
48363;SDS011;34170;54.364;18.582;2023-04-25T05:51:52;5.38;;;3.75;;
48363;SDS011;34170;54.364;18.582;2023-04-25T05:55:16;9.35;;;6.57;;
48363;SDS011;34170;54.364;18.582;2023-04-25T05:57:43;9.65;;;4.90;;
48363;SDS011;34170;54.364;18.582;2023-04-25T06:00:13;5.15;;;3.67;;
48363;SDS011;34170;54.364;18.582;2023-04-25T06:02:44;7.32;;;3.67;;
48363;SDS011;34170;54.364;18.582;2023-04-25T06:05:13;5.57;;;3.72;;
48363;SDS011;34170;54.364;18.582;2023-04-25T06:07:41;5.13;;;3.72;;
48363;SDS011;34170;54.364;18.582;2023-04-25T06:10:08;5.60;;;3.40;;
48363;SDS011;34170;54.364;18.582;2023-04-25T06:12:37;4.72;;;3.28;;
48363;SDS011;34170;54.364;18.582;2023-04-25T06:15:05;7.30;;;3.00;;
48363;SDS011;34170;54.364;18.582;2023-04-25T06:17:53;4.32;;;2.75;;
48363;SDS011;34170;54.364;18.582;2023-04-25T06:20:21;7.07;;;2.72;;
48363;SDS011;34170;54.364;18.582;2023-04-25T06:22:52;6.47;;;3.05;;
48363;SDS011;34170;54.364;18.582;2023-04-25T06:25:23;4.75;;;2.70;;
48363;SDS011;34170;54.364;18.582;2023-04-25T06:27:51;4.03;;;2.95;;
48363;SDS011;34170;54.364;18.582;2023-04-25T06:30:18;5.95;;;3.00;;
48363;SDS011;34170;54.364;18.582;2023-04-25T06:32:52;4.45;;;2.60;;
48363;SDS011;34170;54.364;18.582;2023-04-25T06:35:20;5.60;;;3.03;;
48363;SDS011;34170;54.364;18.582;2023-04-25T06:37:47;4.95;;;2.95;;
48363;SDS011;34170;54.364;18.582;2023-04-25T06:40:19;8.00;;;3.45;;
48363;SDS011;34170;54.364;18.582;2023-04-25T06:42:46;5.53;;;3.03;;
48363;SDS011;34170;54.364;18.582;2023-04-25T06:45:32;7.55;;;3.05;;
48363;SDS011;34170;54.364;18.582;2023-04-25T06:48:00;5.47;;;3.10;;
48363;SDS011;34170;54.364;18.582;2023-04-25T06:50:27;4.18;;;2.90;;
48363;SDS011;34170;54.364;18.582;2023-04-25T06:52:55;4.78;;;3.20;;
48363;SDS011;34170;54.364;18.582;2023-04-25T06:55:22;5.45;;;3.00;;
48363;SDS011;34170;54.364;18.582;2023-04-25T06:58:22;4.35;;;2.95;;
48363;SDS011;34170;54.364;18.582;2023-04-25T07:01:03;5.68;;;3.10;;
48363;SDS011;34170;54.364;18.582;2023-04-25T07:03:31;5.93;;;3.10;;
48363;SDS011;34170;54.364;18.582;2023-04-25T07:06:03;5.32;;;3.30;;
48363;SDS011;34170;54.364;18.582;2023-04-25T07:08:31;6.38;;;3.30;;
48363;SDS011;34170;54.364;18.582;2023-04-25T07:10:58;5.45;;;2.58;;
48363;SDS011;34170;54.364;18.582;2023-04-25T07:13:26;7.82;;;3.13;;
48363;SDS011;34170;54.364;18.582;2023-04-25T07:15:53;5.30;;;2.25;;
48363;SDS011;34170;54.364;18.582;2023-04-25T07:18:23;3.60;;;2.15;;
48363;SDS011;34170;54.364;18.582;2023-04-25T07:20:51;4.82;;;2.22;;
48363;SDS011;34170;54.364;18.582;2023-04-25T07:23:19;4.70;;;2.42;;
48363;SDS011;34170;54.364;18.582;2023-04-25T07:25:47;3.80;;;1.70;;
48363;SDS011;34170;54.364;18.582;2023-04-25T07:28:19;2.70;;;1.70;;
48363;SDS011;34170;54.364;18.582;2023-04-25T07:30:47;3.55;;;2.00;;
48363;SDS011;34170;54.364;18.582;2023-04-25T07:33:14;2.58;;;1.60;;
48363;SDS011;34170;54.364;18.582;2023-04-25T07:35:41;5.05;;;1.90;;
48363;SDS011;34170;54.364;18.582;2023-04-25T07:38:10;4.03;;;1.50;;
48363;SDS011;34170;54.364;18.582;2023-04-25T07:40:38;3.95;;;1.65;;
48363;SDS011;34170;54.364;18.582;2023-04-25T07:43:08;2.75;;;1.10;;
48363;SDS011;34170;54.364;18.582;2023-04-25T07:45:43;2.58;;;1.40;;
48363;SDS011;34170;54.364;18.582;2023-04-25T07:48:15;1.77;;;0.98;;
48363;SDS011;34170;54.364;18.582;2023-04-25T07:50:45;2.13;;;1.15;;
48363;SDS011;34170;54.364;18.582;2023-04-25T07:53:13;1.98;;;1.02;;
48363;SDS011;34170;54.364;18.582;2023-04-25T07:56:21;2.90;;;1.25;;
48363;SDS011;34170;54.364;18.582;2023-04-25T07:58:59;1.30;;;0.80;;
48363;SDS011;34170;54.364;18.582;2023-04-25T08:01:27;1.80;;;0.98;;
48363;SDS011;34170;54.364;18.582;2023-04-25T08:03:58;1.77;;;1.02;;
48363;SDS011;34170;54.364;18.582;2023-04-25T08:06:48;3.03;;;1.13;;
48363;SDS011;34170;54.364;18.582;2023-04-25T08:09:20;2.38;;;0.95;;
48363;SDS011;34170;54.364;18.582;2023-04-25T08:11:48;2.50;;;1.10;;
48363;SDS011;34170;54.364;18.582;2023-04-25T08:14:20;1.58;;;0.70;;
48363;SDS011;34170;54.364;18.582;2023-04-25T08:16:48;4.60;;;1.23;;
48363;SDS011;34170;54.364;18.582;2023-04-25T08:19:16;1.98;;;0.85;;
48363;SDS011;34170;54.364;18.582;2023-04-25T08:21:45;2.22;;;0.80;;
48363;SDS011;34170;54.364;18.582;2023-04-25T08:24:16;1.73;;;0.60;;
48363;SDS011;34170;54.364;18.582;2023-04-25T08:26:44;2.65;;;0.80;;
48363;SDS011;34170;54.364;18.582;2023-04-25T08:29:14;3.10;;;1.08;;
48363;SDS011;34170;54.364;18.582;2023-04-25T08:31:43;3.38;;;0.52;;
48363;SDS011;34170;54.364;18.582;2023-04-25T08:34:12;3.50;;;0.80;;
48363;SDS011;34170;54.364;18.582;2023-04-25T08:36:47;5.15;;;2.95;;
48363;SDS011;34170;54.364;18.582;2023-04-25T08:39:27;1.85;;;0.95;;
48363;SDS011;34170;54.364;18.582;2023-04-25T08:42:13;1.58;;;0.88;;
48363;SDS011;34170;54.364;18.582;2023-04-25T08:44:42;2.60;;;1.05;;
48363;SDS011;34170;54.364;18.582;2023-04-25T08:47:09;1.83;;;0.88;;
48363;SDS011;34170;54.364;18.582;2023-04-25T08:49:44;2.25;;;1.05;;
48363;SDS011;34170;54.364;18.582;2023-04-25T08:52:14;2.03;;;0.63;;
48363;SDS011;34170;54.364;18.582;2023-04-25T08:54:48;1.50;;;0.80;;
48363;SDS011;34170;54.364;18.582;2023-04-25T08:57:18;2.92;;;0.65;;
48363;SDS011;34170;54.364;18.582;2023-04-25T08:59:48;1.98;;;0.80;;
48363;SDS011;34170;54.364;18.582;2023-04-25T09:02:16;1.83;;;0.93;;
48363;SDS011;34170;54.364;18.582;2023-04-25T09:04:49;1.65;;;1.00;;
48363;SDS011;34170;54.364;18.582;2023-04-25T09:07:16;2.15;;;1.00;;
48363;SDS011;34170;54.364;18.582;2023-04-25T09:09:48;1.98;;;0.80;;
48363;SDS011;34170;54.364;18.582;2023-04-25T09:12:18;2.78;;;0.85;;
48363;SDS011;34170;54.364;18.582;2023-04-25T09:15:04;3.35;;;1.00;;
48363;SDS011;34170;54.364;18.582;2023-04-25T09:18:02;5.03;;;2.80;;
48363;SDS011;34170;54.364;18.582;2023-04-25T09:20:40;2.00;;;0.77;;
48363;SDS011;34170;54.364;18.582;2023-04-25T09:23:28;1.58;;;0.75;;
48363;SDS011;34170;54.364;18.582;2023-04-25T09:25:55;1.73;;;0.70;;
48363;SDS011;34170;54.364;18.582;2023-04-25T09:28:23;1.80;;;0.80;;
48363;SDS011;34170;54.364;18.582;2023-04-25T09:30:57;2.38;;;0.90;;
48363;SDS011;34170;54.364;18.582;2023-04-25T09:33:36;1.42;;;0.80;;
48363;SDS011;34170;54.364;18.582;2023-04-25T09:36:09;1.67;;;0.80;;
48363;SDS011;34170;54.364;18.582;2023-04-25T09:38:55;1.52;;;0.60;;
48363;SDS011;34170;54.364;18.582;2023-04-25T09:41:33;1.52;;;0.75;;
48363;SDS011;34170;54.364;18.582;2023-04-25T09:44:05;2.15;;;0.80;;
48363;SDS011;34170;54.364;18.582;2023-04-25T09:46:35;1.58;;;0.82;;
48363;SDS011;34170;54.364;18.582;2023-04-25T09:49:07;3.70;;;1.70;;
48363;SDS011;34170;54.364;18.582;2023-04-25T09:51:58;3.92;;;1.30;;
48363;SDS011;34170;54.364;18.582;2023-04-25T09:54:47;1.50;;;0.93;;
48363;SDS011;34170;54.364;18.582;2023-04-25T09:57:21;1.80;;;0.95;;
48363;SDS011;34170;54.364;18.582;2023-04-25T09:59:52;2.17;;;1.02;;
48363;SDS011;34170;54.364;18.582;2023-04-25T10:02:22;1.50;;;0.80;;
48363;SDS011;34170;54.364;18.582;2023-04-25T10:04:55;1.42;;;1.00;;
48363;SDS011;34170;54.364;18.582;2023-04-25T10:07:29;1.02;;;0.65;;
48363;SDS011;34170;54.364;18.582;2023-04-25T10:10:01;2.22;;;1.15;;
48363;SDS011;34170;54.364;18.582;2023-04-25T10:12:47;2.45;;;1.38;;
48363;SDS011;34170;54.364;18.582;2023-04-25T10:15:15;2.15;;;0.90;;
48363;SDS011;34170;54.364;18.582;2023-04-25T10:17:43;1.45;;;0.98;;
48363;SDS011;34170;54.364;18.582;2023-04-25T10:20:11;2.30;;;1.27;;
48363;SDS011;34170;54.364;18.582;2023-04-25T10:22:41;1.30;;;0.85;;
48363;SDS011;34170;54.364;18.582;2023-04-25T10:25:11;3.03;;;0.70;;
48363;SDS011;34170;54.364;18.582;2023-04-25T10:27:40;2.40;;;0.77;;
48363;SDS011;34170;54.364;18.582;2023-04-25T10:30:13;2.80;;;0.70;;
48363;SDS011;34170;54.364;18.582;2023-04-25T10:32:42;1.63;;;0.60;;
48363;SDS011;34170;54.364;18.582;2023-04-25T10:35:14;1.73;;;0.68;;
48363;SDS011;34170;54.364;18.582;2023-04-25T10:40:38;3.05;;;0.90;;
48363;SDS011;34170;54.364;18.582;2023-04-25T10:46:02;1.60;;;0.60;;
48363;SDS011;34170;54.364;18.582;2023-04-25T10:48:43;3.28;;;0.90;;
48363;SDS011;34170;54.364;18.582;2023-04-25T10:59:06;1.45;;;0.65;;
48363;SDS011;34170;54.364;18.582;2023-04-25T11:01:46;1.70;;;0.63;;
48363;SDS011;34170;54.364;18.582;2023-04-25T11:09:33;2.60;;;0.90;;
48363;SDS011;34170;54.364;18.582;2023-04-25T11:12:02;2.80;;;1.00;;
48363;SDS011;34170;54.364;18.582;2023-04-25T11:14:29;2.08;;;0.73;;
48363;SDS011;34170;54.364;18.582;2023-04-25T11:16:57;1.88;;;0.70;;
48363;SDS011;34170;54.364;18.582;2023-04-25T11:19:27;3.28;;;0.85;;
48363;SDS011;34170;54.364;18.582;2023-04-25T11:21:59;1.92;;;0.98;;
48363;SDS011;34170;54.364;18.582;2023-04-25T11:24:31;3.88;;;0.57;;
48363;SDS011;34170;54.364;18.582;2023-04-25T11:27:06;4.15;;;1.10;;
48363;SDS011;34170;54.364;18.582;2023-04-25T11:29:33;1.77;;;1.00;;
48363;SDS011;34170;54.364;18.582;2023-04-25T11:32:02;2.55;;;1.02;;
48363;SDS011;34170;54.364;18.582;2023-04-25T11:34:30;4.00;;;1.20;;
48363;SDS011;34170;54.364;18.582;2023-04-25T11:37:00;3.25;;;1.13;;
48363;SDS011;34170;54.364;18.582;2023-04-25T11:39:29;2.00;;;1.02;;
48363;SDS011;34170;54.364;18.582;2023-04-25T11:41:57;2.42;;;1.00;;
48363;SDS011;34170;54.364;18.582;2023-04-25T11:44:26;2.42;;;1.20;;
48363;SDS011;34170;54.364;18.582;2023-04-25T11:46:55;3.80;;;1.23;;
48363;SDS011;34170;54.364;18.582;2023-04-25T11:49:22;6.18;;;1.10;;
48363;SDS011;34170;54.364;18.582;2023-04-25T11:51:51;3.95;;;1.33;;
48363;SDS011;34170;54.364;18.582;2023-04-25T11:54:19;4.13;;;1.02;;
48363;SDS011;34170;54.364;18.582;2023-04-25T11:56:46;3.38;;;1.40;;
48363;SDS011;34170;54.364;18.582;2023-04-25T11:59:14;6.00;;;1.30;;
48363;SDS011;34170;54.364;18.582;2023-04-25T12:01:47;3.10;;;1.05;;
48363;SDS011;34170;54.364;18.582;2023-04-25T12:04:19;5.03;;;1.25;;
48363;SDS011;34170;54.364;18.582;2023-04-25T12:06:52;3.63;;;1.27;;
48363;SDS011;34170;54.364;18.582;2023-04-25T12:09:21;2.30;;;0.90;;
48363;SDS011;34170;54.364;18.582;2023-04-25T12:11:56;1.92;;;1.10;;
48363;SDS011;34170;54.364;18.582;2023-04-25T12:14:26;2.85;;;1.05;;
48363;SDS011;34170;54.364;18.582;2023-04-25T12:17:01;2.30;;;0.77;;
48363;SDS011;34170;54.364;18.582;2023-04-25T12:19:34;3.35;;;1.15;;
48363;SDS011;34170;54.364;18.582;2023-04-25T12:22:07;3.17;;;0.75;;
48363;SDS011;34170;54.364;18.582;2023-04-25T12:24:46;2.42;;;0.70;;
48363;SDS011;34170;54.364;18.582;2023-04-25T12:27:15;4.28;;;1.30;;
48363;SDS011;34170;54.364;18.582;2023-04-25T12:29:50;3.45;;;1.10;;
48363;SDS011;34170;54.364;18.582;2023-04-25T12:32:18;4.20;;;1.35;;
48363;SDS011;34170;54.364;18.582;2023-04-25T12:34:46;6.35;;;1.58;;
48363;SDS011;34170;54.364;18.582;2023-04-25T12:37:13;2.55;;;1.30;;
48363;SDS011;34170;54.364;18.582;2023-04-25T12:39:41;4.38;;;1.00;;
48363;SDS011;34170;54.364;18.582;2023-04-25T12:42:08;3.58;;;1.23;;
48363;SDS011;34170;54.364;18.582;2023-04-25T12:44:39;3.60;;;1.23;;
48363;SDS011;34170;54.364;18.582;2023-04-25T12:47:07;1.58;;;0.70;;
48363;SDS011;34170;54.364;18.582;2023-04-25T12:49:34;1.77;;;0.95;;
48363;SDS011;34170;54.364;18.582;2023-04-25T12:52:02;4.15;;;1.27;;
48363;SDS011;34170;54.364;18.582;2023-04-25T12:54:29;3.40;;;1.25;;
48363;SDS011;34170;54.364;18.582;2023-04-25T12:56:57;3.60;;;1.15;;
48363;SDS011;34170;54.364;18.582;2023-04-25T12:59:25;4.13;;;1.20;;
48363;SDS011;34170;54.364;18.582;2023-04-25T13:01:52;3.58;;;1.25;;
48363;SDS011;34170;54.364;18.582;2023-04-25T13:04:20;4.78;;;1.25;;
48363;SDS011;34170;54.364;18.582;2023-04-25T13:06:48;3.05;;;1.05;;
48363;SDS011;34170;54.364;18.582;2023-04-25T13:09:16;3.78;;;1.20;;
48363;SDS011;34170;54.364;18.582;2023-04-25T13:11:44;6.43;;;1.38;;
48363;SDS011;34170;54.364;18.582;2023-04-25T13:14:11;4.90;;;1.40;;
48363;SDS011;34170;54.364;18.582;2023-04-25T13:16:39;5.55;;;1.60;;
48363;SDS011;34170;54.364;18.582;2023-04-25T13:19:06;7.90;;;1.70;;
48363;SDS011;34170;54.364;18.582;2023-04-25T13:21:38;4.18;;;1.85;;
48363;SDS011;34170;54.364;18.582;2023-04-25T13:24:06;6.15;;;1.95;;
48363;SDS011;34170;54.364;18.582;2023-04-25T13:26:34;6.68;;;2.22;;
48363;SDS011;34170;54.364;18.582;2023-04-25T13:29:01;6.10;;;2.03;;
48363;SDS011;34170;54.364;18.582;2023-04-25T13:31:30;4.40;;;2.20;;
48363;SDS011;34170;54.364;18.582;2023-04-25T13:33:58;5.05;;;2.90;;
48363;SDS011;34170;54.364;18.582;2023-04-25T13:36:25;6.63;;;2.90;;
48363;SDS011;34170;54.364;18.582;2023-04-25T13:38:53;5.13;;;2.08;;
48363;SDS011;34170;54.364;18.582;2023-04-25T13:41:20;6.05;;;1.73;;
48363;SDS011;34170;54.364;18.582;2023-04-25T13:43:48;4.68;;;2.00;;
48363;SDS011;34170;54.364;18.582;2023-04-25T13:46:16;3.30;;;1.67;;
48363;SDS011;34170;54.364;18.582;2023-04-25T13:48:46;4.75;;;1.98;;
48363;SDS011;34170;54.364;18.582;2023-04-25T13:51:15;6.20;;;2.05;;
48363;SDS011;34170;54.364;18.582;2023-04-25T13:53:44;4.20;;;1.80;;
48363;SDS011;34170;54.364;18.582;2023-04-25T13:56:12;5.15;;;2.25;;
48363;SDS011;34170;54.364;18.582;2023-04-25T13:58:39;6.32;;;2.50;;
48363;SDS011;34170;54.364;18.582;2023-04-25T14:01:07;6.45;;;2.75;;
48363;SDS011;34170;54.364;18.582;2023-04-25T14:03:35;6.85;;;3.25;;
48363;SDS011;34170;54.364;18.582;2023-04-25T14:06:03;7.53;;;3.47;;
48363;SDS011;34170;54.364;18.582;2023-04-25T14:08:31;15.02;;;4.65;;
48363;SDS011;34170;54.364;18.582;2023-04-25T14:10:59;8.85;;;3.80;;
48363;SDS011;34170;54.364;18.582;2023-04-25T14:13:26;7.88;;;3.83;;
48363;SDS011;34170;54.364;18.582;2023-04-25T14:15:54;8.23;;;3.58;;
48363;SDS011;34170;54.364;18.582;2023-04-25T14:18:21;7.85;;;4.03;;
48363;SDS011;34170;54.364;18.582;2023-04-25T14:20:49;7.47;;;4.13;;
48363;SDS011;34170;54.364;18.582;2023-04-25T14:23:16;8.27;;;3.75;;
48363;SDS011;34170;54.364;18.582;2023-04-25T14:25:44;8.35;;;4.97;;
48363;SDS011;34170;54.364;18.582;2023-04-25T14:28:12;8.98;;;4.30;;
48363;SDS011;34170;54.364;18.582;2023-04-25T14:30:40;6.55;;;4.38;;
48363;SDS011;34170;54.364;18.582;2023-04-25T14:33:07;8.23;;;3.33;;
48363;SDS011;34170;54.364;18.582;2023-04-25T14:35:35;7.55;;;1.88;;
48363;SDS011;34170;54.364;18.582;2023-04-25T14:38:02;7.10;;;2.25;;
48363;SDS011;34170;54.364;18.582;2023-04-25T14:40:30;13.13;;;3.05;;
48363;SDS011;34170;54.364;18.582;2023-04-25T14:42:57;5.93;;;2.30;;
48363;SDS011;34170;54.364;18.582;2023-04-25T14:45:25;9.80;;;2.25;;
48363;SDS011;34170;54.364;18.582;2023-04-25T14:47:52;15.88;;;3.30;;
48363;SDS011;34170;54.364;18.582;2023-04-25T14:50:20;10.80;;;3.55;;
48363;SDS011;34170;54.364;18.582;2023-04-25T14:52:48;10.63;;;2.67;;
48363;SDS011;34170;54.364;18.582;2023-04-25T14:55:15;13.25;;;2.85;;
48363;SDS011;34170;54.364;18.582;2023-04-25T14:57:43;7.88;;;2.42;;
48363;SDS011;34170;54.364;18.582;2023-04-25T15:00:11;9.98;;;2.30;;
48363;SDS011;34170;54.364;18.582;2023-04-25T15:02:42;11.23;;;3.00;;
48363;SDS011;34170;54.364;18.582;2023-04-25T15:05:11;13.23;;;3.13;;
48363;SDS011;34170;54.364;18.582;2023-04-25T15:07:38;7.05;;;2.15;;
48363;SDS011;34170;54.364;18.582;2023-04-25T15:10:07;9.57;;;2.50;;
48363;SDS011;34170;54.364;18.582;2023-04-25T15:12:40;11.98;;;3.10;;
48363;SDS011;34170;54.364;18.582;2023-04-25T15:15:08;13.15;;;2.88;;
48363;SDS011;34170;54.364;18.582;2023-04-25T15:17:51;11.32;;;2.60;;
48363;SDS011;34170;54.364;18.582;2023-04-25T15:20:18;10.07;;;2.80;;
48363;SDS011;34170;54.364;18.582;2023-04-25T15:22:46;9.52;;;2.80;;